Mc Allen Miller International Airport
KMFE : now visible

Airfield :











YOU CAN JOIN US ON...

 
LOGIN :

Register | Disclaimer

   EN    FR    IT 

 









Legend :    VFR   Marginal VFR   IFR   Intensive IFR   Very Intensive IFR
Visi :
Ceiling :
>= 8 km
>= 3000ft
5 to 8 km
1000 to 3000 ft
1500m to 5 km
500 to 1000 ft
800 to 1500m
200 to 500 ft
< 800m
< 200 ft
Symbols :   Thunderstorms  Fog  Heavy snow  Heavy precipitations  Wind > 20 kt






- Airport Elevation : 107 ft
- IATA code : MFE


KMFE - Mc Allen Miller International

CURRENT METAR :
  • 112053Z 13011G18KT 10SM FEW055 36/23 A2990 RMK AO2 SLP122 T03560228 58017

EXPIRED METARs :
  • 111953Z 15012G19KT 10SM SCT050 36/23 A2992 RMK AO2 SLP129 T03560228
  • 111853Z 16013G23KT 10SM SCT055 35/23 A2994 RMK AO2 SLP137 T03500228

TAF KMFE
Valid from the 11 at 18:00 until the 12 at 18:00 UTC


111720Z 1118/1218 15011KT P6SM SKC
FM112100 14014KT P6SM FEW045 FEW100
FM120900 14012KT P6SM FEW018 FEW250
FM121700 15012KT P6SM SCT021
KZHU FIR / North America



MET'MAP, your aeronautical weather chart ! - Copyright ORBIFLY December 2007 - Disclaimer

ORBIFLY MET'MAP TEAM :

Programming & Development : Alexandra Zaïnal
Concept & original design : Baudouin d'Aumeries
Assistance for programming : Marc-Olivier Méhu
Technical & hardware support : Manuel Goepfert

Contact : metmap@orbifly.com




SOURCES & CREDITS :

   NOAA       Earth
Advisory